Time;durP1;ratioP1;P1;durP2;ratioP2;P2;SDS_P1;SDS_P2;PMS_P1;PMS_P2;Temp;Humidity;BMP_temperature;BMP_pressure;BME280_temperature;BME280_humidity;BME280_pressure;Samples;Min_cycle;Max_cycle;Signal;HPM_P1;HPM_P2
2023/04/09 00:01:23;;;;;;;56.17;28.20;;;6.10;99.90;;;-144.05;79.24;56989.00;5034895;28;20025;-81
2023/04/09 00:03:49;;;;;;;51.25;27.42;;;6.00;99.90;;;-144.05;79.36;56974.16;5036077;28;20045;-81
2023/04/09 00:06:15;;;;;;;55.00;28.88;;;5.90;99.90;;;-144.05;80.21;56969.91;5036458;28;20083;-80
2023/04/09 00:08:41;;;;;;;53.75;26.65;;;5.90;99.90;;;-144.05;79.75;56967.78;5060513;28;20029;-82
2023/04/09 00:11:07;;;;;;;58.38;28.60;;;5.80;99.90;;;-144.05;79.62;56963.53;5055960;28;20035;-81
2023/04/09 00:13:32;;;;;;;54.85;27.38;;;5.80;99.90;;;-144.05;79.58;56982.66;5055348;28;20032;-81
2023/04/09 00:15:58;;;;;;;50.25;27.00;;;5.70;99.90;;;-144.05;79.85;56957.16;5055308;28;20497;-80
2023/04/09 00:18:24;;;;;;;57.45;30.25;;;5.80;99.90;;;-144.05;80.42;56963.53;5053830;28;20063;-81
2023/04/09 00:20:50;;;;;;;62.33;29.65;;;5.70;99.90;;;-144.05;80.60;56989.00;5036010;28;20028;-82
2023/04/09 00:23:16;;;;;;;59.67;29.60;;;5.70;99.90;;;-144.05;80.75;56967.78;5035362;28;20033;-83
2023/04/09 00:25:42;;;;;;;57.65;28.40;;;5.70;99.90;;;-144.05;80.82;56976.28;5058024;28;20029;-82
2023/04/09 00:28:07;;;;;;;59.85;28.90;;;5.70;99.90;;;-144.05;80.33;56980.53;5059516;28;20033;-82
2023/04/09 00:30:33;;;;;;;60.83;30.75;;;5.70;99.90;;;-144.05;80.97;56959.28;5039771;28;20032;-82
2023/04/09 00:32:59;;;;;;;57.08;30.67;;;5.60;99.90;;;-144.05;80.47;56967.78;5040157;28;20092;-82
2023/04/09 00:35:25;;;;;;;64.82;31.65;;;5.70;99.90;;;-144.05;80.52;56972.03;5058752;28;20067;-80
2023/04/09 00:37:51;;;;;;;61.25;31.48;;;5.60;99.90;;;-144.05;80.60;56976.28;5038455;28;20079;-80
2023/04/09 00:40:17;;;;;;;57.15;29.85;;;5.60;99.90;;;-144.05;80.75;56991.13;5058224;28;20040;-80
2023/04/09 00:42:43;;;;;;;60.05;29.67;;;5.60;99.90;;;-144.05;81.05;56961.41;5062242;28;20044;-83
2023/04/09 00:45:09;;;;;;;71.40;34.38;;;5.50;99.90;;;-144.05;80.87;56969.91;5041100;28;20504;-82
2023/04/09 00:47:35;;;;;;;62.08;31.83;;;5.50;99.90;;;-144.05;81.17;56984.78;5045019;28;20029;-81
2023/04/09 00:50:02;;;;;;;59.58;31.85;;;5.50;99.90;;;-144.05;81.00;56967.78;5063163;28;20029;-80
2023/04/09 00:52:31;;;;;;;68.95;32.78;;;5.40;99.90;;;-144.05;81.10;56974.16;5058944;28;20068;-80
2023/04/09 00:55:03;;;;;;;62.90;28.60;;;5.40;99.90;;;-144.05;80.83;56989.00;5058547;28;20091;-79
2023/04/09 00:57:28;;;;;;;60.13;31.10;;;5.30;99.90;;;-144.05;80.69;56952.91;5058571;28;20029;-81
2023/04/09 00:59:55;;;;;;;59.67;30.83;;;5.30;99.90;;;-144.05;80.64;56978.41;5060266;28;20484;-83
2023/04/09 01:02:21;;;;;;;61.13;29.67;;;5.20;99.90;;;-144.05;81.15;56965.66;5059344;28;20055;-82
2023/04/09 01:04:49;;;;;;;63.70;30.70;;;5.20;99.90;;;-144.05;81.16;56967.78;5058820;28;20029;-82
2023/04/09 01:08:14;;;;;;;64.80;30.10;;;5.10;99.90;;;-144.05;81.01;56993.25;5042214;28;20075;-82
2023/04/09 01:11:18;;;;;;;61.85;29.52;;;5.00;99.90;;;-144.05;81.00;56967.78;5068058;28;20063;-81
2023/04/09 01:14:20;;;;;;;57.75;28.77;;;5.00;99.90;;;-144.05;80.74;56967.78;5063412;28;20137;-80
2023/04/09 01:16:58;;;;;;;55.35;27.75;;;4.70;99.90;;;-144.05;80.84;56959.28;5063823;28;20021;-81
2023/04/09 01:20:12;;;;;;;54.58;27.33;;;4.50;99.90;;;-144.05;80.91;56986.91;5062926;28;20036;-82
2023/04/09 01:23:12;;;;;;;50.30;26.40;;;4.40;99.90;;;-144.05;81.06;57008.13;5046094;28;20049;-82
2023/04/09 01:25:55;;;;;;;57.10;28.05;;;4.20;99.90;;;-144.05;80.85;56999.63;5048385;28;20037;-80
2023/04/09 01:28:58;;;;;;;58.53;28.70;;;4.10;99.90;;;-144.05;81.39;56980.53;5070895;28;20036;-80
2023/04/09 01:31:35;;;;;;;61.85;30.98;;;4.00;99.90;;;-144.05;81.76;57001.75;5050063;28;20040;-83
2023/04/09 01:34:05;;;;;;;56.53;28.73;;;4.10;99.90;;;-144.05;81.50;56997.50;5065512;28;20111;-84
2023/04/09 01:36:35;;;;;;;54.08;27.05;;;3.90;99.90;;;-144.05;81.37;56989.00;5070921;28;20055;-78
2023/04/09 01:39:03;;;;;;;55.45;28.20;;;3.80;99.90;;;-144.05;81.66;57025.13;5073253;28;20044;-80
2023/04/09 01:41:34;;;;;;;57.72;28.58;;;3.70;99.90;;;-144.05;81.77;57012.38;5062550;28;20025;-80
2023/04/09 01:44:03;;;;;;;67.25;31.35;;;3.70;99.90;;;-144.05;81.62;56978.41;5068791;28;20032;-81
2023/04/09 01:46:32;;;;;;;63.42;30.52;;;3.70;99.90;;;-144.05;81.71;57014.50;5064867;28;20061;-82
2023/04/09 01:49:00;;;;;;;57.38;27.85;;;3.70;99.90;;;-144.05;81.47;57008.13;5045082;28;20106;-79
2023/04/09 01:51:27;;;;;;;51.80;28.20;;;3.50;99.90;;;-144.05;81.25;56978.41;5046994;28;20052;-82
2023/04/09 01:53:53;;;;;;;55.08;29.05;;;3.40;99.90;;;-144.05;81.69;56995.38;5048973;28;20049;-82
2023/04/09 01:56:20;;;;;;;61.08;29.38;;;3.40;99.90;;;-144.05;81.61;56995.38;5060465;28;20387;-83
2023/04/09 01:58:46;;;;;;;65.28;31.20;;;3.30;99.90;;;-144.05;81.64;57006.00;5062314;28;20029;-82
2023/04/09 02:01:35;;;;;;;60.55;27.75;;;3.30;99.90;;;-144.05;81.12;57006.00;5066045;28;20040;-83
2023/04/09 02:04:23;;;;;;;58.35;29.65;;;3.10;99.90;;;-144.05;81.17;56999.63;5062463;28;20029;-82
2023/04/09 02:07:13;;;;;;;58.20;29.42;;;3.00;99.90;;;-144.05;81.47;56991.13;5062972;28;20031;-81
2023/04/09 02:09:45;;;;;;;65.00;32.30;;;2.90;99.90;;;-144.05;81.44;57001.75;5062615;28;20099;-79
2023/04/09 02:12:17;;;;;;;61.63;31.95;;;2.90;99.90;;;-144.05;81.49;57003.88;5065891;28;20060;-81
2023/04/09 02:14:50;;;;;;;61.78;31.73;;;2.80;99.90;;;-144.05;81.47;57014.50;5061389;28;20021;-83
2023/04/09 02:17:18;;;;;;;65.93;31.77;;;2.80;99.90;;;-144.05;81.71;56982.66;5046601;28;20021;-82
2023/04/09 02:19:47;;;;;;;70.25;33.08;;;2.80;99.90;;;-144.05;82.00;56984.78;5060079;28;20040;-81
2023/04/09 02:22:15;;;;;;;60.70;30.25;;;2.80;99.90;;;-144.05;81.74;56993.25;5058784;28;20441;-82
2023/04/09 02:24:41;;;;;;;69.63;33.85;;;2.70;99.90;;;-144.05;81.82;57008.13;5058029;28;20040;-81
2023/04/09 02:27:08;;;;;;;69.28;31.98;;;2.70;99.90;;;-144.05;81.76;57012.38;5059624;28;20085;-84
2023/04/09 02:29:34;;;;;;;65.90;32.08;;;2.60;99.90;;;-144.05;81.64;57018.75;5059311;28;20039;-83
2023/04/09 02:32:00;;;;;;;64.18;31.48;;;2.60;99.90;;;-144.05;82.37;57016.63;5058295;28;20028;-84
2023/04/09 02:34:27;;;;;;;62.78;31.95;;;2.60;99.90;;;-144.05;81.73;56997.50;5059302;28;20132;-83
2023/04/09 02:36:52;;;;;;;63.75;31.50;;;2.50;99.90;;;-144.05;82.10;57012.38;5058936;28;20021;-81
2023/04/09 02:39:18;;;;;;;56.50;29.02;;;2.40;99.90;;;-144.05;81.71;57006.00;5060061;28;20039;-81
2023/04/09 02:41:44;;;;;;;64.15;31.52;;;2.40;99.90;;;-144.05;82.03;57014.50;5059441;28;20025;-80
2023/04/09 02:44:10;;;;;;;61.28;30.15;;;2.40;99.90;;;-144.05;81.74;56993.25;5059157;28;20037;-82
2023/04/09 02:46:39;;;;;;;76.80;32.92;;;2.30;99.90;;;-144.05;81.81;57023.00;5057177;28;20342;-81
2023/04/09 02:49:05;;;;;;;73.82;33.28;;;2.20;99.90;;;-144.05;82.14;57020.88;5055770;28;20025;-82
2023/04/09 02:51:35;;;;;;;78.40;35.22;;;2.30;99.90;;;-144.05;81.69;57016.63;5058613;28;20025;-83
2023/04/09 02:54:01;;;;;;;62.03;30.92;;;2.40;99.90;;;-144.05;81.64;57014.50;5062937;28;20029;-81
2023/04/09 02:56:27;;;;;;;61.95;31.48;;;2.30;99.90;;;-144.05;81.41;57014.50;5046388;28;20032;-83
2023/04/09 02:58:54;;;;;;;62.13;31.20;;;2.20;99.90;;;-144.05;81.51;56997.50;5065360;28;20025;-80
2023/04/09 03:01:20;;;;;;;59.03;29.15;;;2.10;99.90;;;-144.05;81.71;57029.38;5042095;28;20021;-80
2023/04/09 03:03:47;;;;;;;65.65;32.03;;;2.10;99.90;;;-144.05;81.54;57006.00;5044628;28;20032;-81
2023/04/09 03:06:13;;;;;;;61.83;30.52;;;2.00;99.90;;;-144.05;81.93;57023.00;5058900;28;20403;-78
2023/04/09 03:08:39;;;;;;;69.03;31.05;;;2.00;99.90;;;-144.05;81.63;57014.50;5054843;28;20556;-81
2023/04/09 03:11:05;;;;;;;69.88;32.10;;;2.00;99.90;;;-144.05;81.74;57023.00;5055592;28;20576;-82
2023/04/09 03:13:31;;;;;;;62.90;29.70;;;2.10;99.90;;;-144.05;82.26;57006.00;5053721;28;20040;-84
2023/04/09 03:15:57;;;;;;;63.15;28.67;;;2.10;99.90;;;-144.05;82.08;57006.00;5057213;28;20021;-84
2023/04/09 03:18:23;;;;;;;62.47;28.27;;;2.00;99.90;;;-144.05;81.83;57006.00;5056849;28;20052;-82
2023/04/09 03:20:49;;;;;;;53.33;26.77;;;2.00;99.90;;;-144.05;81.61;57018.75;5057027;28;20025;-83
2023/04/09 03:23:14;;;;;;;57.47;27.25;;;2.00;99.90;;;-144.05;81.57;57020.88;5056264;28;20024;-84
2023/04/09 03:25:40;;;;;;;58.50;27.33;;;1.90;99.90;;;-144.05;81.46;57016.63;5056299;28;20029;-83
2023/04/09 03:28:06;;;;;;;64.95;30.23;;;1.80;99.90;;;-144.05;82.05;56999.63;5059876;28;20063;-82
2023/04/09 03:30:32;;;;;;;58.83;27.92;;;1.80;99.90;;;-144.05;81.91;57025.13;5062978;28;20108;-80
2023/04/09 03:32:58;;;;;;;54.05;26.90;;;1.70;99.90;;;-144.05;81.99;57023.00;5053792;28;20405;-84
2023/04/09 03:35:24;;;;;;;57.13;25.63;;;1.80;99.90;;;-144.05;81.74;57037.88;5053853;28;20071;-79
2023/04/09 03:37:50;;;;;;;60.20;28.23;;;1.70;99.90;;;-144.05;81.40;57020.88;5052954;28;20025;-81
2023/04/09 03:40:16;;;;;;;55.83;25.48;;;1.60;99.90;;;-144.05;81.31;57040.00;5036107;28;20074;-81
2023/04/09 03:42:43;;;;;;;62.75;29.10;;;1.50;99.90;;;-144.05;81.82;57020.88;5052589;28;20510;-81
2023/04/09 03:45:09;;;;;;;59.50;28.80;;;1.50;99.90;;;-144.05;82.14;57008.13;5052757;28;20017;-80
2023/04/09 03:47:35;;;;;;;60.45;28.98;;;1.50;99.90;;;-144.05;82.32;57023.00;5053814;28;20106;-83
2023/04/09 03:50:02;;;;;;;56.03;27.17;;;1.50;99.90;;;-144.05;81.71;57018.75;5054907;28;20021;-80
2023/04/09 03:52:28;;;;;;;58.60;25.85;;;1.50;99.90;;;-144.05;81.91;57027.25;5035859;28;20052;-83
2023/04/09 03:54:54;;;;;;;60.25;26.63;;;1.40;99.90;;;-144.05;81.74;57003.88;5053389;28;20021;-82
2023/04/09 03:57:19;;;;;;;62.22;27.25;;;1.40;99.90;;;-144.05;81.98;57023.00;5053683;28;20031;-83
2023/04/09 03:59:45;;;;;;;53.15;24.77;;;1.30;99.90;;;-144.05;82.02;57008.13;5053416;28;20037;-82
2023/04/09 04:02:11;;;;;;;65.68;29.58;;;1.30;99.90;;;-144.05;82.12;57031.50;5054582;28;20362;-82
2023/04/09 04:04:37;;;;;;;56.92;25.48;;;1.30;99.90;;;-144.05;82.01;57018.75;5036997;28;20102;-82
2023/04/09 04:07:03;;;;;;;63.55;30.30;;;1.30;99.90;;;-144.05;82.54;57018.75;5053016;28;20044;-82
2023/04/09 04:09:29;;;;;;;64.20;29.95;;;1.40;99.90;;;-144.05;82.44;57052.75;5054266;28;20052;-83
2023/04/09 04:11:57;;;;;;;68.97;30.45;;;1.50;99.90;;;-144.05;82.41;57029.38;5052032;28;20025;-83
2023/04/09 04:14:23;;;;;;;66.30;31.70;;;1.50;99.90;;;-144.05;82.67;57010.25;5055227;28;20025;-79
2023/04/09 04:16:49;;;;;;;65.13;29.48;;;1.60;99.90;;;-144.05;82.25;57020.88;5058111;28;20429;-81
2023/04/09 04:19:15;;;;;;;67.10;30.17;;;1.50;99.90;;;-144.05;81.74;57023.00;5040004;28;20048;-83
2023/04/09 04:21:41;;;;;;;59.30;27.08;;;1.50;99.90;;;-144.05;81.78;57010.25;5058721;28;20048;-82
2023/04/09 04:24:07;;;;;;;54.97;25.95;;;1.40;99.90;;;-144.05;81.61;57025.13;5058211;28;20033;-82
2023/04/09 04:26:32;;;;;;;61.33;27.15;;;1.30;99.90;;;-144.05;82.15;57016.63;5057321;28;20052;-81
2023/04/09 04:28:58;;;;;;;55.38;26.15;;;1.30;99.90;;;-144.05;82.25;57029.38;5058122;28;20420;-85
2023/04/09 04:31:24;;;;;;;63.90;27.75;;;1.30;99.90;;;-144.05;81.99;57016.63;5058224;28;20085;-80
2023/04/09 04:33:50;;;;;;;65.35;29.35;;;1.20;99.90;;;-144.05;82.65;57031.50;5059277;28;20116;-81
2023/04/09 04:36:16;;;;;;;59.33;27.08;;;1.10;99.90;;;-144.05;82.22;57020.88;5059476;28;20068;-83
2023/04/09 04:38:42;;;;;;;61.30;26.98;;;1.10;99.90;;;-144.05;82.22;57050.63;5059691;28;20535;-81
2023/04/09 04:41:10;;;;;;;57.42;27.52;;;1.00;99.90;;;-144.05;82.21;57035.75;5042919;28;20112;-79
2023/04/09 04:43:36;;;;;;;59.55;28.25;;;1.10;99.90;;;-144.05;82.11;57018.75;5061064;28;20028;-82
2023/04/09 04:46:02;;;;;;;56.92;27.35;;;1.00;99.90;;;-144.05;82.04;57042.13;5042253;28;20083;-82
2023/04/09 04:48:29;;;;;;;58.03;28.38;;;0.90;99.90;;;-144.05;82.20;57018.75;5043273;28;20449;-84
2023/04/09 04:51:01;;;;;;;62.72;28.85;;;1.00;99.90;;;-144.05;82.56;57040.00;5049522;28;20041;-83
2023/04/09 04:53:27;;;;;;;71.03;30.27;;;1.00;99.90;;;-144.05;83.29;57035.75;5073410;28;20037;-83
2023/04/09 04:55:53;;;;;;;60.58;28.05;;;1.10;99.90;;;-144.05;83.02;57023.00;5043720;28;20029;-84
2023/04/09 04:58:19;;;;;;;67.93;30.77;;;1.20;99.90;;;-144.05;82.79;57025.13;5057437;28;20059;-82
2023/04/09 05:00:46;;;;;;;64.15;28.77;;;1.30;99.90;;;-144.05;82.37;57027.25;5055581;28;20021;-82
2023/04/09 05:03:13;;;;;;;64.82;28.95;;;1.30;99.90;;;-144.05;82.15;57006.00;5056780;28;20052;-83
2023/04/09 05:05:39;;;;;;;51.58;24.40;;;1.30;99.90;;;-144.05;82.16;57065.47;5058638;28;20029;-82
2023/04/09 05:08:05;;;;;;;52.95;24.50;;;1.20;99.90;;;-144.05;81.95;57023.00;5058038;28;20033;-84
2023/04/09 05:10:31;;;;;;;55.67;27.63;;;1.10;99.90;;;-144.05;82.46;57014.50;5057656;28;20476;-83
2023/04/09 05:12:57;;;;;;;57.53;27.67;;;1.10;99.90;;;-144.05;82.46;57003.88;5039853;28;20025;-83
2023/04/09 05:15:23;;;;;;;61.65;28.33;;;1.20;99.90;;;-144.05;82.39;57010.25;5058089;28;20487;-82
2023/04/09 05:17:49;;;;;;;58.15;27.83;;;1.20;99.90;;;-144.05;82.47;57040.00;5057835;28;20029;-83
2023/04/09 05:20:15;;;;;;;56.58;26.65;;;1.20;99.90;;;-144.05;82.76;57016.63;5057661;28;20029;-83
2023/04/09 05:22:40;;;;;;;60.00;27.98;;;1.30;99.90;;;-144.05;82.68;57014.50;5058520;28;20040;-83
2023/04/09 05:25:08;;;;;;;57.97;27.63;;;1.40;99.90;;;-144.05;82.45;57014.50;5040104;28;20120;-84
2023/04/09 05:27:34;;;;;;;53.72;25.85;;;1.40;99.90;;;-144.05;82.26;57031.50;5060794;28;20029;-80
2023/04/09 05:30:00;;;;;;;57.80;27.33;;;1.40;99.90;;;-144.05;82.48;57016.63;5065728;28;20032;-82
2023/04/09 05:32:26;;;;;;;56.10;26.63;;;1.40;99.90;;;-144.05;82.54;57003.88;5039824;28;20029;-82
2023/04/09 05:34:52;;;;;;;63.10;30.38;;;1.50;99.90;;;-144.05;82.66;56999.63;5039442;28;20040;-83
2023/04/09 05:37:17;;;;;;;68.65;29.50;;;1.60;99.90;;;-144.05;82.84;56997.50;5059218;28;20032;-83
2023/04/09 05:39:43;;;;;;;73.70;32.38;;;1.70;99.90;;;-144.05;83.02;57025.13;5060966;28;20477;-82
2023/04/09 05:42:09;;;;;;;64.45;28.42;;;1.80;99.90;;;-144.05;82.48;56989.00;5060487;28;20025;-83
2023/04/09 05:44:35;;;;;;;61.80;28.77;;;2.00;99.90;;;-144.05;82.54;57008.13;5043099;28;20071;-82
2023/04/09 05:47:02;;;;;;;62.03;29.70;;;2.10;99.90;;;-144.05;82.30;57033.63;5061123;28;20037;-85
2023/04/09 05:49:28;;;;;;;64.50;31.27;;;2.30;99.90;;;-144.05;82.26;56991.13;5042537;28;20107;-85
2023/04/09 05:51:54;;;;;;;66.22;29.05;;;2.40;99.90;;;-144.05;82.30;57001.75;5058695;28;20143;-81
2023/04/09 05:54:20;;;;;;;63.45;28.05;;;2.50;99.90;;;-144.05;82.21;56997.50;5058839;28;20067;-83
2023/04/09 05:56:47;;;;;;;56.85;28.27;;;2.70;99.90;;;-144.05;82.50;57001.75;5041754;28;20421;-84
2023/04/09 05:59:12;;;;;;;57.95;27.48;;;2.80;99.90;;;-144.05;82.69;56976.28;5041821;28;20120;-83
2023/04/09 06:01:38;;;;;;;48.97;24.80;;;3.00;99.90;;;-144.05;82.97;56978.41;5059802;28;20491;-82
2023/04/09 06:04:04;;;;;;;45.25;24.42;;;3.20;99.90;;;-144.05;82.71;56972.03;5057539;28;20119;-82
2023/04/09 06:06:30;;;;;;;45.13;23.98;;;3.20;99.90;;;-144.05;83.12;56967.78;5059556;28;20543;-83
2023/04/09 06:08:56;;;;;;;39.28;22.35;;;3.40;99.90;;;-144.05;83.63;56984.78;5041989;28;20055;-82
2023/04/09 06:11:22;;;;;;;40.78;22.27;;;3.60;99.90;;;-144.05;83.39;56963.53;5041612;28;20087;-83
2023/04/09 06:13:48;;;;;;;41.03;22.42;;;3.80;99.90;;;-144.05;83.47;56997.50;5059895;28;20094;-83
2023/04/09 06:16:14;;;;;;;36.63;20.75;;;4.10;99.90;;;-144.05;83.19;56946.53;5041423;28;20025;-83
2023/04/09 06:18:41;;;;;;;41.38;23.23;;;4.40;99.90;;;-144.05;82.59;56957.16;5058956;28;20024;-83
2023/04/09 06:21:08;;;;;;;39.70;23.42;;;4.70;99.90;;;-144.05;81.81;56959.28;5059265;28;20377;-82
2023/04/09 06:23:36;;;;;;;38.20;22.40;;;4.90;99.90;;;-144.05;79.85;56929.53;5057757;28;20025;-82
2023/04/09 06:26:02;;;;;;;40.28;24.25;;;5.10;99.90;;;-144.05;78.98;56950.78;5059051;28;20047;-82
2023/04/09 06:28:28;;;;;;;41.08;23.55;;;5.40;99.90;;;-144.05;77.66;56912.56;5040813;28;20033;-82
2023/04/09 06:30:54;;;;;;;39.28;23.83;;;5.70;99.90;;;-144.05;76.34;56940.16;5057531;28;20038;-83
2023/04/09 06:33:21;;;;;;;38.50;22.17;;;5.90;99.90;;;-144.05;76.34;56938.03;5039568;28;20096;-82
2023/04/09 06:35:48;;;;;;;43.60;22.40;;;6.30;99.90;;;-144.05;74.46;56940.16;5057123;28;20029;-82
2023/04/09 06:38:15;;;;;;;37.10;22.52;;;6.60;99.90;;;-144.05;73.72;56935.91;5056144;28;20059;-82
2023/04/09 06:40:41;;;;;;;36.85;21.45;;;7.00;99.90;;;-144.05;71.40;56963.53;5039366;28;20035;-83
2023/04/09 06:43:08;;;;;;;37.03;22.52;;;7.20;99.90;;;-144.05;68.64;56946.53;5038878;28;20052;-81
2023/04/09 06:45:36;;;;;;;37.92;22.75;;;7.30;99.90;;;-144.05;68.23;56921.06;5055844;28;20132;-81
2023/04/09 06:48:03;;;;;;;32.15;20.40;;;7.60;99.90;;;-144.05;67.78;56925.28;5038888;28;20040;-84
2023/04/09 06:50:29;;;;;;;39.08;23.92;;;7.70;99.90;;;-144.05;65.96;56948.66;5039305;28;20029;-84
2023/04/09 06:52:57;;;;;;;31.15;19.75;;;7.90;99.90;;;-144.05;64.24;56929.53;5056658;28;20035;-82
2023/04/09 06:55:23;;;;;;;29.15;17.60;;;8.00;99.90;;;-144.05;64.57;56955.03;5038002;28;20152;-82
2023/04/09 06:57:49;;;;;;;26.77;17.15;;;8.30;99.90;;;-144.05;63.48;56959.28;5055800;28;20385;-81
2023/04/09 07:00:15;;;;;;;28.25;16.48;;;8.60;99.90;;;-144.05;62.93;56935.91;5054567;28;20023;-81
2023/04/09 07:02:41;;;;;;;23.55;14.55;;;8.90;99.90;;;-144.05;61.16;56938.03;5037460;28;20083;-81
2023/04/09 07:05:08;;;;;;;26.67;15.80;;;9.10;99.90;;;-144.05;60.40;56931.66;5055206;28;20469;-82
2023/04/09 07:07:33;;;;;;;26.45;14.90;;;9.40;99.90;;;-144.05;59.00;56929.53;5054449;28;20029;-80
2023/04/09 07:10:00;;;;;;;25.70;14.98;;;9.50;99.90;;;-144.05;59.34;56931.66;5037055;28;20032;-81
2023/04/09 07:12:33;;;;;;;25.92;15.20;;;9.50;99.90;;;-144.05;58.81;56946.53;5056370;28;20021;-81
2023/04/09 07:15:06;;;;;;;23.85;14.65;;;9.60;99.90;;;-144.05;58.63;56938.03;5056676;28;20611;-81
2023/04/09 07:17:34;;;;;;;22.60;14.70;;;9.70;99.90;;;-144.05;57.56;56927.41;5056519;28;20107;-82
2023/04/09 07:20:01;;;;;;;22.83;14.35;;;10.00;99.90;;;-144.05;56.56;56935.91;5061175;28;20079;-81
2023/04/09 07:22:29;;;;;;;23.30;14.63;;;10.20;99.90;;;-144.05;56.15;56927.41;5043691;28;20021;-82
2023/04/09 07:24:56;;;;;;;23.45;14.77;;;10.30;99.90;;;-144.05;56.32;56925.28;5058195;28;20048;-83
2023/04/09 07:27:26;;;;;;;23.90;15.23;;;10.50;99.90;;;-144.05;55.40;56935.91;5062429;28;20119;-81
2023/04/09 07:29:58;;;;;;;22.50;13.43;;;10.70;99.90;;;-144.05;55.04;56891.31;5051779;28;20025;-82
2023/04/09 07:32:26;;;;;;;22.58;13.57;;;10.80;99.90;;;-144.05;55.25;56963.53;5060346;28;20033;-82
2023/04/09 07:34:54;;;;;;;24.15;15.35;;;10.70;99.90;;;-144.05;55.74;56940.16;5059537;28;20025;-82
2023/04/09 07:37:20;;;;;;;21.10;13.57;;;10.90;99.90;;;-144.05;54.49;56938.03;5056539;28;20465;-81
2023/04/09 07:39:50;;;;;;;24.05;13.63;;;11.00;99.90;;;-144.05;55.09;56916.81;5055860;28;20025;-83
2023/04/09 07:42:16;;;;;;;22.45;14.02;;;11.10;99.90;;;-144.05;53.52;56927.41;5061887;28;20025;-81
2023/04/09 07:44:42;;;;;;;19.67;12.20;;;11.30;99.90;;;-144.05;53.13;56910.44;5062998;28;20071;-82
2023/04/09 07:47:10;;;;;;;19.70;12.40;;;11.70;99.90;;;-144.05;51.44;56916.81;5046073;28;20028;-82
2023/04/09 07:49:36;;;;;;;20.85;12.50;;;12.10;99.90;;;-144.05;50.44;56927.41;5066988;28;20425;-81
2023/04/09 07:52:04;;;;;;;19.95;12.88;;;12.10;99.90;;;-144.05;50.98;56929.53;5047674;28;20619;-82
2023/04/09 07:54:32;;;;;;;17.75;12.52;;;12.30;99.90;;;-144.05;49.42;56910.44;5048678;28;20029;-81
2023/04/09 07:57:00;;;;;;;20.25;13.00;;;12.40;99.90;;;-144.05;49.04;56906.19;5070507;28;20025;-82
2023/04/09 07:59:26;;;;;;;22.70;12.85;;;12.70;99.90;;;-144.05;49.00;56904.06;5067463;28;20021;-81
2023/04/09 08:01:53;;;;;;;20.50;12.70;;;13.10;99.90;;;-144.05;48.06;56925.28;5042298;28;20452;-83
2023/04/09 08:04:18;;;;;;;20.38;11.55;;;13.10;99.90;;;-144.05;47.76;56904.06;5044111;28;20025;-82
2023/04/09 08:06:51;;;;;;;18.05;11.38;;;13.00;99.90;;;-144.05;47.53;56901.94;5061448;28;20028;-82
2023/04/09 08:09:20;;;;;;;20.10;11.50;;;13.10;99.90;;;-144.05;46.41;56891.31;5059456;28;20045;-84
2023/04/09 08:11:48;;;;;;;19.17;12.30;;;13.30;99.90;;;-144.05;46.52;56931.66;5059975;28;20032;-82
2023/04/09 08:14:16;;;;;;;20.30;12.93;;;13.30;99.90;;;-144.05;45.92;56935.91;5044275;28;20035;-82
2023/04/09 08:16:45;;;;;;;19.95;11.80;;;13.60;99.90;;;-144.05;45.88;56940.16;5044401;28;20422;-83
2023/04/09 08:19:15;;;;;;;17.27;10.80;;;14.00;99.90;;;-144.05;44.02;56921.06;5062474;28;20105;-82
2023/04/09 08:21:42;;;;;;;18.33;11.70;;;14.10;99.90;;;-144.05;44.13;56916.81;5061539;28;20041;-82
2023/04/09 08:24:10;;;;;;;16.38;10.88;;;14.40;99.90;;;-144.05;42.58;56908.31;5062811;28;20048;-80
2023/04/09 08:26:41;;;;;;;16.40;11.18;;;14.50;99.90;;;-144.05;42.25;56952.91;5059794;28;20132;-83
2023/04/09 08:29:11;;;;;;;16.15;10.20;;;14.50;99.90;;;-144.05;42.30;56908.31;5044604;28;20472;-83
2023/04/09 08:31:37;;;;;;;14.52;9.68;;;14.40;99.90;;;-144.05;41.96;56908.31;5044520;28;20423;-82
2023/04/09 08:34:05;;;;;;;18.60;11.13;;;14.30;99.90;;;-144.05;42.15;56918.94;5040761;28;20029;-82
2023/04/09 08:36:33;;;;;;;15.48;10.05;;;14.30;99.90;;;-144.05;40.88;56899.81;5044571;28;20033;-81
2023/04/09 08:38:59;;;;;;;14.90;10.05;;;14.30;99.90;;;-144.05;40.89;56921.06;5064008;28;20032;-81
2023/04/09 08:41:28;;;;;;;17.52;10.27;;;14.70;99.90;;;-144.05;39.52;56942.28;5048195;28;20021;-82
2023/04/09 08:43:55;;;;;;;18.52;11.27;;;14.80;99.90;;;-144.05;40.97;56925.28;5060425;28;20029;-83
2023/04/09 08:46:23;;;;;;;17.80;12.10;;;14.70;99.90;;;-144.05;39.65;56921.06;5043308;28;20040;-82
2023/04/09 08:48:51;;;;;;;14.68;9.18;;;14.90;99.90;;;-144.05;38.84;56918.94;5058207;28;20116;-81
2023/04/09 08:51:21;;;;;;;13.25;8.18;;;15.10;99.90;;;-144.05;36.96;56931.66;5040357;28;20120;-84
2023/04/09 08:54:01;;;;;;;14.07;9.95;;;14.90;99.60;;;-144.05;38.93;56942.28;5056729;28;20472;-81
2023/04/09 08:56:28;;;;;;;15.27;9.82;;;14.60;99.90;;;-144.05;38.13;56910.44;5056146;28;20083;-83
2023/04/09 08:58:55;;;;;;;14.43;10.32;;;14.90;99.90;;;-144.05;39.23;56921.06;5038499;28;20075;-81
2023/04/09 09:01:28;;;;;;;16.83;11.75;;;15.00;99.90;;;-144.05;38.86;56921.06;5042278;28;20040;-82
2023/04/09 09:04:02;;;;;;;15.25;10.60;;;15.00;99.90;;;-144.05;38.18;56912.56;5060287;28;20025;-82
2023/04/09 09:06:38;;;;;;;16.10;10.23;;;15.20;99.90;;;-144.05;38.50;56942.28;5059649;28;20036;-81
2023/04/09 09:09:13;;;;;;;;;;;15.30;99.90;;;-144.05;38.02;56916.81;5040486;28;20037;-82
2023/04/09 09:11:45;;;;;;;14.65;9.00;;;15.60;99.90;;;-144.05;36.79;56927.41;5058709;28;19931;-83
2023/04/09 09:14:15;;;;;;;12.32;9.38;;;15.70;98.50;;;-144.05;37.49;56933.78;5060670;28;20063;-82
2023/04/09 09:17:03;;;;;;;15.07;9.93;;;15.30;98.00;;;-144.05;37.58;56929.53;5041937;28;20025;-85
2023/04/09 09:19:35;;;;;;;13.13;8.93;;;15.50;99.10;;;-144.05;37.35;56895.56;5046498;28;20021;-82
2023/04/09 09:22:11;;;;;;;11.50;7.68;;;15.50;97.30;;;-144.05;36.62;56940.16;5063834;28;20025;-81
2023/04/09 09:24:48;;;;;;;14.30;9.73;;;15.10;95.70;;;-144.05;37.02;56906.19;5046387;28;20029;-82
2023/04/09 09:27:35;;;;;;;14.90;9.75;;;15.40;98.10;;;-144.05;36.18;56933.78;5063822;28;20052;-81
2023/04/09 09:30:04;;;;;;;11.93;7.30;;;15.30;96.60;;;-144.05;34.51;56923.19;5051615;28;20041;-82
2023/04/09 09:32:32;;;;;;;8.98;6.32;;;15.10;92.90;;;-144.05;34.79;56921.06;5051045;28;20021;-80
2023/04/09 09:35:06;;;;;;;8.55;5.82;;;15.30;92.40;;;-144.05;33.11;56933.78;5045995;28;20036;-80
2023/04/09 09:37:33;;;;;;;10.43;6.47;;;15.40;90.60;;;-144.05;34.34;56929.53;5045929;28;20025;-81
2023/04/09 09:40:00;;;;;;;9.93;6.82;;;14.30;90.30;;;-144.05;35.39;56921.06;5030478;28;20040;-80
2023/04/09 09:42:26;;;;;;;9.80;6.95;;;14.00;92.50;;;-144.05;35.08;56921.06;5046921;28;20021;-81
2023/04/09 09:44:55;;;;;;;10.10;7.47;;;14.60;93.70;;;-144.05;34.33;56923.19;5045365;28;20087;-83
2023/04/09 09:47:22;;;;;;;9.63;6.60;;;15.40;93.70;;;-144.05;33.13;56946.53;5063834;28;20039;-82
2023/04/09 09:49:50;;;;;;;10.50;6.40;;;16.20;91.20;;;-144.05;31.88;56918.94;5049951;28;20040;-83
2023/04/09 09:52:25;;;;;;;9.07;6.05;;;16.30;84.20;;;-144.05;31.98;56908.31;5062007;28;20379;-83
2023/04/09 09:54:54;;;;;;;10.43;6.50;;;16.20;82.50;;;-144.05;33.09;56933.78;5046838;28;20036;-81
2023/04/09 09:57:27;;;;;;;8.60;6.43;;;15.80;82.60;;;-144.05;32.33;56944.41;5064626;28;20025;-82
2023/04/09 10:00:01;;;;;;;9.15;6.70;;;16.00;81.80;;;-144.05;33.32;56933.78;5045345;28;20025;-82
2023/04/09 10:03:05;;;;;;;11.52;6.82;;;15.50;82.80;;;-144.05;32.70;56933.78;5044353;28;20021;-80
2023/04/09 10:05:34;;;;;;;9.98;6.88;;;15.70;83.80;;;-144.05;33.40;56914.69;5042238;28;20559;-82
2023/04/09 10:08:01;;;;;;;10.30;6.63;;;15.30;84.80;;;-144.05;34.45;56929.53;5059826;28;20047;-82